Time;durP1;ratioP1;P1;durP2;ratioP2;P2;SDS_P1;SDS_P2;PMS_P1;PMS_P2;Temp;Humidity;BMP_temperature;BMP_pressure;BME280_temperature;BME280_humidity;BME280_pressure;Samples;Min_cycle;Max_cycle;Signal;HPM_P1;HPM_P2
2022/05/05 00:01:41;;;;;;;0.25;0.10;;;;;;;;;;4179376;28;20099;-42
2022/05/05 00:03:43;;;;;;;0.30;0.15;;;;;;;;;;4179092;28;20095;-41
2022/05/05 00:05:44;;;;;;;0.10;0.10;;;;;;;;;;4179336;28;20088;-41
2022/05/05 00:07:45;;;;;;;0.50;0.17;;;;;;;;;;4179394;28;20049;-41
2022/05/05 00:09:48;;;;;;;0.20;0.10;;;;;;;;;;4178961;28;20099;-41
2022/05/05 00:14:24;;;;;;;1.95;0.20;;;;;;;;;;4178747;28;20045;-39
2022/05/05 00:16:27;;;;;;;0.30;0.10;;;;;;;;;;4179193;28;20174;-41
2022/05/05 00:18:28;;;;;;;0.03;0.03;;;;;;;;;;4179054;28;20327;-41
2022/05/05 00:20:29;;;;;;;0.30;0.10;;;;;;;;;;4179156;28;20048;-41
2022/05/05 00:22:30;;;;;;;0.55;0.20;;;;;;;;;;4179109;28;20049;-40
2022/05/05 00:24:31;;;;;;;0.45;0.20;;;;;;;;;;4178836;28;20131;-40
2022/05/05 00:26:32;;;;;;;0.45;0.10;;;;;;;;;;4179351;28;20045;-41
2022/05/05 00:28:33;;;;;;;0.15;0.10;;;;;;;;;;4178594;28;20053;-40
2022/05/05 00:30:34;;;;;;;0.75;0.20;;;;;;;;;;4179271;28;20110;-40
2022/05/05 00:32:35;;;;;;;1.38;0.13;;;;;;;;;;4179068;28;20053;-42
2022/05/05 00:34:37;;;;;;;0.10;0.10;;;;;;;;;;4178895;28;20049;-41
2022/05/05 00:36:38;;;;;;;0.10;0.10;;;;;;;;;;4179126;28;20547;-41
2022/05/05 00:38:39;;;;;;;0.13;0.10;;;;;;;;;;4178875;28;20107;-41
2022/05/05 00:40:43;;;;;;;0.05;0.05;;;;;;;;;;4179080;28;20408;-39
2022/05/05 00:42:44;;;;;;;0.30;0.10;;;;;;;;;;4179406;28;20488;-39
2022/05/05 00:44:45;;;;;;;0.13;0.10;;;;;;;;;;4181686;28;20608;-41
2022/05/05 00:46:49;;;;;;;0.75;0.20;;;;;;;;;;4182189;28;20045;-41
2022/05/05 00:48:50;;;;;;;0.50;0.15;;;;;;;;;;4181953;28;20052;-41
2022/05/05 00:50:52;;;;;;;0.10;0.10;;;;;;;;;;4181067;28;20049;-39
2022/05/05 00:52:53;;;;;;;1.25;0.20;;;;;;;;;;4182365;28;20052;-41
2022/05/05 00:54:56;;;;;;;0.50;0.20;;;;;;;;;;4182062;28;20148;-40
2022/05/05 00:56:58;;;;;;;0.30;0.10;;;;;;;;;;4182247;28;20091;-41
2022/05/05 00:59:00;;;;;;;0.32;0.10;;;;;;;;;;4181601;28;20045;-41
2022/05/05 01:01:03;;;;;;;0.32;0.10;;;;;;;;;;4181753;28;20053;-41
2022/05/05 01:03:07;;;;;;;0.10;0.10;;;;;;;;;;4182023;28;20464;-42
2022/05/05 01:05:08;;;;;;;0.30;0.10;;;;;;;;;;4181835;28;20049;-41
2022/05/05 01:07:09;;;;;;;0.30;0.20;;;;;;;;;;4182158;28;20049;-40
2022/05/05 01:09:10;;;;;;;1.15;0.20;;;;;;;;;;4181650;28;20381;-40
2022/05/05 01:11:12;;;;;;;0.35;0.13;;;;;;;;;;4181759;28;20091;-40
2022/05/05 01:13:13;;;;;;;0.40;0.20;;;;;;;;;;4181808;28;20524;-40
2022/05/05 01:15:14;;;;;;;1.88;0.20;;;;;;;;;;4181178;28;20086;-41
2022/05/05 01:17:15;;;;;;;0.22;0.13;;;;;;;;;;4181745;28;20053;-41
2022/05/05 01:19:16;;;;;;;0.20;0.20;;;;;;;;;;4181750;28;20044;-41
2022/05/05 01:21:20;;;;;;;0.20;0.20;;;;;;;;;;4181562;28;20056;-41
2022/05/05 01:23:22;;;;;;;0.20;0.10;;;;;;;;;;4180229;28;20071;-41
2022/05/05 01:30:03;;;;;;;0.28;0.20;;;;;;;;;;4181027;28;20087;-40
2022/05/05 01:32:04;;;;;;;0.38;0.20;;;;;;;;;;4181619;28;20523;-41
2022/05/05 01:34:05;;;;;;;0.35;0.20;;;;;;;;;;4181348;28;20048;-41
2022/05/05 01:36:07;;;;;;;0.68;0.20;;;;;;;;;;4181441;28;20056;-41
2022/05/05 01:38:08;;;;;;;0.17;0.10;;;;;;;;;;4181407;28;20056;-41
2022/05/05 01:40:09;;;;;;;0.30;0.10;;;;;;;;;;4181269;28;20052;-38
2022/05/05 01:42:10;;;;;;;0.50;0.13;;;;;;;;;;4181491;28;20045;-40
2022/05/05 01:44:11;;;;;;;0.30;0.15;;;;;;;;;;4181143;28;20071;-41
2022/05/05 01:46:14;;;;;;;0.82;0.30;;;;;;;;;;4181594;28;20053;-42
2022/05/05 01:48:15;;;;;;;0.40;0.10;;;;;;;;;;4181267;28;20049;-41
2022/05/05 01:50:16;;;;;;;0.50;0.20;;;;;;;;;;4179562;28;20128;-40
2022/05/05 01:52:17;;;;;;;0.90;0.20;;;;;;;;;;4179786;28;20048;-40
2022/05/05 01:54:18;;;;;;;0.40;0.17;;;;;;;;;;4179545;28;20057;-41
2022/05/05 01:56:20;;;;;;;0.45;0.20;;;;;;;;;;4180422;28;20056;-40
2022/05/05 01:58:23;;;;;;;0.30;0.13;;;;;;;;;;4180688;28;20444;-39
2022/05/05 02:00:24;;;;;;;0.10;0.10;;;;;;;;;;4180084;28;20086;-41
2022/05/05 02:02:25;;;;;;;0.10;0.10;;;;;;;;;;4180640;28;20179;-41
2022/05/05 02:04:26;;;;;;;0.30;0.20;;;;;;;;;;4180481;28;20514;-41
2022/05/05 02:06:27;;;;;;;0.30;0.10;;;;;;;;;;4181123;28;20449;-42
2022/05/05 02:08:28;;;;;;;0.55;0.10;;;;;;;;;;4180981;28;20080;-42
2022/05/05 02:10:29;;;;;;;0.47;0.30;;;;;;;;;;4181052;28;20053;-39
2022/05/05 02:12:30;;;;;;;0.15;0.10;;;;;;;;;;4180874;28;20201;-42
2022/05/05 02:14:32;;;;;;;0.47;0.10;;;;;;;;;;4212289;28;20052;-40
2022/05/05 02:16:33;;;;;;;0.20;0.10;;;;;;;;;;4180874;28;20063;-41
2022/05/05 02:18:34;;;;;;;0.30;0.10;;;;;;;;;;4180733;28;20053;-41
2022/05/05 02:20:36;;;;;;;0.20;0.10;;;;;;;;;;4180540;28;20471;-41
2022/05/05 02:22:37;;;;;;;0.20;0.10;;;;;;;;;;4212631;28;20044;-40
2022/05/05 02:24:38;;;;;;;0.13;0.10;;;;;;;;;;4180511;28;20056;-41
2022/05/05 02:26:39;;;;;;;0.17;0.17;;;;;;;;;;4180928;28;20052;-42
2022/05/05 02:28:40;;;;;;;0.25;0.20;;;;;;;;;;4180092;28;20436;-41
2022/05/05 02:30:42;;;;;;;0.40;0.20;;;;;;;;;;4180761;28;20045;-41
2022/05/05 02:32:42;;;;;;;0.55;0.20;;;;;;;;;;4180704;28;20483;-41
2022/05/05 02:34:44;;;;;;;0.10;0.10;;;;;;;;;;4180558;28;20579;-41
2022/05/05 02:39:19;;;;;;;0.20;0.13;;;;;;;;;;4168009;28;20052;-41
2022/05/05 02:41:20;;;;;;;0.17;0.17;;;;;;;;;;4180398;28;20045;-41
2022/05/05 02:43:21;;;;;;;0.28;0.10;;;;;;;;;;4180322;28;20091;-41
2022/05/05 02:45:23;;;;;;;0.43;0.20;;;;;;;;;;4180148;28;20183;-41
2022/05/05 02:47:24;;;;;;;0.75;0.17;;;;;;;;;;4180511;28;20045;-38
2022/05/05 02:49:27;;;;;;;0.95;0.30;;;;;;;;;;4179976;28;20164;-40
2022/05/05 02:51:28;;;;;;;0.10;0.08;;;;;;;;;;4212327;28;20048;-41
2022/05/05 02:55:49;;;;;;;0.22;0.10;;;;;;;;;;4180085;28;20518;-41
2022/05/05 02:57:51;;;;;;;0.25;0.20;;;;;;;;;;4180178;28;20468;-39
2022/05/05 02:59:55;;;;;;;0.35;0.20;;;;;;;;;;4179320;28;20408;-40
2022/05/05 03:01:56;;;;;;;0.25;0.10;;;;;;;;;;4180019;28;20425;-41
2022/05/05 03:03:57;;;;;;;0.35;0.20;;;;;;;;;;4179860;28;20049;-41
2022/05/05 03:05:58;;;;;;;0.30;0.30;;;;;;;;;;4179322;28;20082;-40
2022/05/05 03:07:59;;;;;;;0.20;0.10;;;;;;;;;;4179933;28;20156;-41
2022/05/05 03:10:00;;;;;;;0.52;0.25;;;;;;;;;;4179725;28;20049;-40
2022/05/05 03:12:02;;;;;;;0.15;0.15;;;;;;;;;;4180199;28;20055;-41
2022/05/05 03:14:03;;;;;;;0.30;0.13;;;;;;;;;;4179401;28;20378;-40
2022/05/05 03:16:04;;;;;;;1.13;0.20;;;;;;;;;;4179825;28;20064;-39
2022/05/05 03:18:05;;;;;;;0.20;0.20;;;;;;;;;;4179734;28;20168;-42
2022/05/05 03:20:06;;;;;;;1.05;0.30;;;;;;;;;;4179529;28;20510;-41
2022/05/05 03:22:08;;;;;;;0.22;0.15;;;;;;;;;;4179583;28;20049;-40
2022/05/05 03:24:09;;;;;;;0.50;0.30;;;;;;;;;;4179699;28;20049;-41
2022/05/05 03:26:09;;;;;;;0.55;0.20;;;;;;;;;;4180100;28;20187;-39
2022/05/05 03:28:10;;;;;;;1.65;0.30;;;;;;;;;;4179805;28;20045;-41
2022/05/05 03:30:11;;;;;;;0.47;0.25;;;;;;;;;;4194512;28;20155;-40
2022/05/05 03:32:15;;;;;;;0.77;0.10;;;;;;;;;;4179465;28;20049;-40
2022/05/05 03:34:16;;;;;;;0.40;0.20;;;;;;;;;;4179355;28;20389;-41
2022/05/05 03:36:17;;;;;;;0.30;0.20;;;;;;;;;;4179533;28;20095;-42
2022/05/05 03:38:18;;;;;;;0.68;0.25;;;;;;;;;;4179517;28;20087;-41
2022/05/05 03:40:19;;;;;;;1.13;0.40;;;;;;;;;;4179397;28;20102;-42
2022/05/05 03:42:19;;;;;;;0.40;0.13;;;;;;;;;;4179370;28;20051;-41
2022/05/05 03:44:21;;;;;;;0.10;0.10;;;;;;;;;;4179156;28;20187;-41
2022/05/05 03:46:22;;;;;;;0.10;0.10;;;;;;;;;;4179317;28;20182;-41
2022/05/05 03:48:23;;;;;;;0.38;0.17;;;;;;;;;;4179553;28;20053;-40
2022/05/05 03:50:24;;;;;;;0.10;0.10;;;;;;;;;;4179333;28;20049;-42
2022/05/05 03:52:26;;;;;;;0.28;0.20;;;;;;;;;;4179498;28;20075;-40
2022/05/05 03:54:27;;;;;;;0.47;0.10;;;;;;;;;;4177860;28;20048;-42
2022/05/05 03:56:28;;;;;;;0.10;0.10;;;;;;;;;;4179169;28;20447;-41
2022/05/05 03:58:29;;;;;;;0.20;0.20;;;;;;;;;;4178924;28;20118;-39
2022/05/05 04:00:30;;;;;;;0.30;0.20;;;;;;;;;;4179010;28;20504;-41
2022/05/05 04:02:31;;;;;;;0.73;0.60;;;;;;;;;;4211157;28;20052;-41
2022/05/05 04:04:32;;;;;;;0.50;0.20;;;;;;;;;;4179037;28;20150;-41
2022/05/05 04:06:33;;;;;;;1.00;0.10;;;;;;;;;;4177943;28;20045;-41
2022/05/05 04:08:36;;;;;;;0.28;0.10;;;;;;;;;;4179046;28;20056;-41
2022/05/05 04:10:37;;;;;;;0.35;0.20;;;;;;;;;;4179417;28;20041;-41
2022/05/05 04:12:37;;;;;;;0.90;0.17;;;;;;;;;;4179397;28;20049;-41
2022/05/05 04:14:38;;;;;;;0.10;0.10;;;;;;;;;;4178978;28;20091;-41
2022/05/05 04:16:41;;;;;;;0.13;0.10;;;;;;;;;;4179572;28;20481;-41
2022/05/05 04:18:43;;;;;;;0.57;0.30;;;;;;;;;;4182513;28;20049;-41
2022/05/05 04:20:44;;;;;;;0.20;0.10;;;;;;;;;;4182575;28;20057;-41
2022/05/05 04:22:45;;;;;;;0.90;0.38;;;;;;;;;;4214512;28;20048;-40
2022/05/05 04:24:46;;;;;;;0.50;0.20;;;;;;;;;;4182261;28;20404;-41
2022/05/05 04:26:47;;;;;;;0.20;0.20;;;;;;;;;;4182442;28;20091;-41
2022/05/05 04:28:49;;;;;;;0.30;0.20;;;;;;;;;;4181930;28;20114;-41
2022/05/05 04:30:50;;;;;;;0.30;0.25;;;;;;;;;;4182605;28;20045;-40
2022/05/05 04:32:52;;;;;;;0.20;0.10;;;;;;;;;;4182834;28;20053;-41
2022/05/05 04:34:54;;;;;;;0.40;0.30;;;;;;;;;;4182463;28;20049;-39
2022/05/05 04:36:55;;;;;;;0.43;0.22;;;;;;;;;;4182559;28;20114;-42
2022/05/05 04:38:55;;;;;;;0.10;0.10;;;;;;;;;;4182420;28;20745;-41
2022/05/05 04:40:56;;;;;;;0.55;0.20;;;;;;;;;;4182308;28;20447;-41
2022/05/05 04:42:57;;;;;;;0.20;0.10;;;;;;;;;;4182248;28;20080;-41
2022/05/05 04:44:59;;;;;;;0.32;0.15;;;;;;;;;;4180491;28;20083;-42
2022/05/05 04:47:01;;;;;;;0.40;0.10;;;;;;;;;;4182302;28;20045;-41
2022/05/05 04:49:03;;;;;;;0.43;0.10;;;;;;;;;;4180984;28;20073;-40
2022/05/05 04:51:05;;;;;;;0.32;0.20;;;;;;;;;;4182109;28;20048;-41
2022/05/05 04:53:06;;;;;;;0.38;0.10;;;;;;;;;;4182226;28;20110;-41
2022/05/05 04:55:08;;;;;;;0.85;0.20;;;;;;;;;;4181827;28;20052;-41
2022/05/05 04:57:09;;;;;;;0.20;0.20;;;;;;;;;;4181997;28;20041;-40
2022/05/05 04:59:10;;;;;;;0.45;0.20;;;;;;;;;;4196774;28;20447;-41
2022/05/05 05:01:11;;;;;;;0.22;0.17;;;;;;;;;;4170969;28;20099;-40
2022/05/05 05:05:32;;;;;;;0.60;0.25;;;;;;;;;;4163455;28;20049;-41
2022/05/05 05:07:33;;;;;;;0.20;0.15;;;;;;;;;;4163608;28;20048;-40
2022/05/05 05:09:34;;;;;;;0.88;0.20;;;;;;;;;;4163098;28;20104;-41
2022/05/05 05:11:35;;;;;;;0.30;0.22;;;;;;;;;;4172250;28;20096;-40
2022/05/05 05:13:37;;;;;;;0.32;0.25;;;;;;;;;;4177785;28;20056;-41
2022/05/05 05:15:37;;;;;;;0.25;0.25;;;;;;;;;;4174595;28;20493;-41
2022/05/05 05:17:38;;;;;;;0.68;0.22;;;;;;;;;;4210778;28;20606;-40
2022/05/05 05:19:40;;;;;;;0.43;0.30;;;;;;;;;;4177031;28;20478;-41
2022/05/05 05:21:41;;;;;;;0.70;0.25;;;;;;;;;;4178439;28;20056;-41
2022/05/05 05:23:42;;;;;;;2.08;0.30;;;;;;;;;;4179609;28;20106;-41
2022/05/05 05:25:44;;;;;;;0.40;0.30;;;;;;;;;;4178057;28;20103;-39
2022/05/05 05:27:45;;;;;;;0.22;0.22;;;;;;;;;;4180473;28;20053;-41
2022/05/05 05:29:46;;;;;;;0.68;0.35;;;;;;;;;;4176589;28;20045;-41
2022/05/05 05:31:47;;;;;;;0.55;0.30;;;;;;;;;;4175829;28;20050;-41
2022/05/05 05:33:48;;;;;;;0.68;0.30;;;;;;;;;;4176088;28;20052;-42
2022/05/05 05:35:49;;;;;;;0.60;0.30;;;;;;;;;;4177266;28;20144;-41
2022/05/05 05:37:51;;;;;;;0.43;0.30;;;;;;;;;;4162791;28;20139;-41
2022/05/05 05:39:52;;;;;;;0.30;0.22;;;;;;;;;;4169185;28;20076;-40
2022/05/05 05:41:53;;;;;;;0.85;0.50;;;;;;;;;;4178967;28;20092;-41
2022/05/05 05:43:54;;;;;;;0.25;0.20;;;;;;;;;;4174218;28;20462;-40
2022/05/05 05:45:55;;;;;;;0.80;0.57;;;;;;;;;;4178183;28;20131;-40
2022/05/05 05:47:56;;;;;;;0.43;0.40;;;;;;;;;;4190698;28;20048;-41
2022/05/05 05:49:57;;;;;;;0.43;0.30;;;;;;;;;;4178497;28;20063;-40
2022/05/05 05:51:58;;;;;;;0.70;0.45;;;;;;;;;;4190767;28;20051;-39
2022/05/05 05:53:59;;;;;;;0.50;0.30;;;;;;;;;;4177109;28;20053;-39
2022/05/05 05:56:00;;;;;;;0.65;0.50;;;;;;;;;;4171866;28;20045;-40
2022/05/05 05:58:02;;;;;;;1.30;0.50;;;;;;;;;;4175725;28;20045;-40
2022/05/05 06:00:04;;;;;;;0.57;0.52;;;;;;;;;;4174283;28;20126;-42
2022/05/05 06:04:32;;;;;;;0.85;0.40;;;;;;;;;;4205001;28;20576;-40
2022/05/05 06:06:33;;;;;;;1.65;0.50;;;;;;;;;;4176298;28;20048;-40
2022/05/05 06:08:34;;;;;;;1.30;0.60;;;;;;;;;;4182742;28;20550;-41
2022/05/05 06:10:36;;;;;;;0.93;0.40;;;;;;;;;;4174118;28;20041;-39
2022/05/05 06:12:37;;;;;;;0.80;0.43;;;;;;;;;;4180047;28;20512;-41
2022/05/05 06:14:38;;;;;;;1.95;0.40;;;;;;;;;;4177011;28;20325;-41
2022/05/05 06:16:39;;;;;;;0.82;0.50;;;;;;;;;;4168899;28;20564;-40
2022/05/05 06:18:40;;;;;;;1.38;0.40;;;;;;;;;;4169989;28;20159;-41
2022/05/05 06:20:41;;;;;;;1.67;0.55;;;;;;;;;;4178398;28;20119;-39
2022/05/05 06:22:42;;;;;;;0.40;0.30;;;;;;;;;;4175192;28;20111;-41
2022/05/05 06:24:43;;;;;;;2.35;0.47;;;;;;;;;;4176782;28;20317;-42
2022/05/05 06:26:46;;;;;;;3.10;0.40;;;;;;;;;;4173626;28;20045;-41
2022/05/05 06:28:48;;;;;;;1.15;0.60;;;;;;;;;;4163595;28;20134;-42
2022/05/05 06:30:49;;;;;;;1.92;0.40;;;;;;;;;;4165945;28;20092;-40
2022/05/05 06:32:50;;;;;;;4.10;0.95;;;;;;;;;;4164734;28;20048;-38
2022/05/05 06:34:51;;;;;;;1.73;0.75;;;;;;;;;;4175920;28;20107;-38
2022/05/05 06:36:52;;;;;;;1.95;0.60;;;;;;;;;;4176798;28;20214;-37
2022/05/05 06:38:53;;;;;;;1.70;0.60;;;;;;;;;;4179458;28;20493;-36
2022/05/05 06:40:54;;;;;;;1.33;0.68;;;;;;;;;;4170925;28;20484;-38
2022/05/05 06:42:56;;;;;;;0.57;0.40;;;;;;;;;;4176278;28;20373;-36
2022/05/05 06:44:57;;;;;;;1.45;0.50;;;;;;;;;;4171637;28;20041;-38
2022/05/05 06:46:59;;;;;;;0.80;0.60;;;;;;;;;;4167300;28;20099;-41
2022/05/05 06:49:00;;;;;;;2.20;0.50;;;;;;;;;;4169743;28;20037;-35
2022/05/05 06:51:01;;;;;;;2.00;0.38;;;;;;;;;;4171268;28;20131;-38
2022/05/05 06:53:02;;;;;;;1.92;0.70;;;;;;;;;;4171103;28;20187;-34
2022/05/05 06:55:04;;;;;;;1.85;0.40;;;;;;;;;;4170784;28;20110;-39
2022/05/05 06:57:05;;;;;;;0.93;0.40;;;;;;;;;;4165427;28;20558;-38
2022/05/05 06:59:06;;;;;;;1.35;0.40;;;;;;;;;;4173792;28;20056;-36
2022/05/05 07:03:27;;;;;;;0.65;0.50;;;;;;;;;;4165336;28;20460;-39
2022/05/05 07:05:28;;;;;;;1.67;0.57;;;;;;;;;;4161053;28;20057;-38
2022/05/05 07:07:29;;;;;;;2.08;0.70;;;;;;;;;;4149169;28;20492;-40
2022/05/05 07:11:49;;;;;;;1.58;0.60;;;;;;;;;;4168188;28;20063;-38
2022/05/05 07:13:50;;;;;;;2.00;0.68;;;;;;;;;;4164713;28;20111;-38
2022/05/05 07:15:52;;;;;;;3.65;0.55;;;;;;;;;;4169938;28;20049;-38
2022/05/05 07:17:53;;;;;;;1.52;0.50;;;;;;;;;;4170082;28;20090;-37
2022/05/05 07:19:54;;;;;;;2.10;0.38;;;;;;;;;;4161867;28;20147;-38
2022/05/05 07:21:55;;;;;;;2.13;0.52;;;;;;;;;;4163208;28;20620;-39
2022/05/05 07:23:56;;;;;;;0.50;0.40;;;;;;;;;;4170568;28;20049;-38
2022/05/05 07:25:57;;;;;;;1.85;0.70;;;;;;;;;;4163087;28;20053;-35
2022/05/05 07:27:58;;;;;;;3.85;0.93;;;;;;;;;;4196568;28;20126;-38
2022/05/05 07:29:59;;;;;;;1.40;0.50;;;;;;;;;;4162993;28;20045;-38
2022/05/05 07:32:01;;;;;;;1.27;0.52;;;;;;;;;;4154218;28;20049;-39
2022/05/05 07:34:02;;;;;;;0.60;0.40;;;;;;;;;;4163447;28;20578;-38
2022/05/05 07:36:03;;;;;;;1.25;0.38;;;;;;;;;;4166417;28;20110;-41
2022/05/05 07:38:05;;;;;;;2.42;0.55;;;;;;;;;;4160174;28;20053;-38
2022/05/05 07:40:07;;;;;;;2.85;0.68;;;;;;;;;;4163965;28;20671;-38
2022/05/05 07:42:08;;;;;;;0.90;0.52;;;;;;;;;;4157439;28;20606;-39
2022/05/05 07:44:09;;;;;;;2.30;0.43;;;;;;;;;;4163549;28;20053;-37
2022/05/05 07:46:11;;;;;;;2.35;0.70;;;;;;;;;;4165182;28;21442;-40
2022/05/05 07:48:12;;;;;;;2.05;0.60;;;;;;;;;;4163247;28;20048;-37
2022/05/05 07:50:12;;;;;;;0.90;0.45;;;;;;;;;;4160871;28;20053;-40
2022/05/05 07:52:14;;;;;;;0.73;0.57;;;;;;;;;;4162216;28;20652;-38
2022/05/05 07:56:51;;;;;;;3.33;0.55;;;;;;;;;;4147436;28;20123;-36
2022/05/05 07:58:52;;;;;;;1.83;0.68;;;;;;;;;;4165515;28;20499;-38
2022/05/05 08:00:53;;;;;;;3.25;0.88;;;;;;;;;;4152946;28;20067;-40
2022/05/05 08:02:55;;;;;;;1.63;0.70;;;;;;;;;;4157006;28;20072;-42
2022/05/05 08:04:56;;;;;;;1.17;0.75;;;;;;;;;;4163892;28;20555;-37
2022/05/05 08:06:57;;;;;;;2.35;0.57;;;;;;;;;;4166703;28;20076;-35
2022/05/05 08:08:58;;;;;;;1.73;0.57;;;;;;;;;;4165330;28;20470;-40
2022/05/05 08:10:59;;;;;;;1.23;0.70;;;;;;;;;;4164843;28;20775;-36
2022/05/05 08:13:00;;;;;;;4.22;0.50;;;;;;;;;;4157163;28;20138;-38
2022/05/05 08:15:02;;;;;;;1.30;0.65;;;;;;;;;;4165007;28;20906;-38
2022/05/05 08:17:04;;;;;;;2.30;0.60;;;;;;;;;;4173345;28;20145;-41
2022/05/05 08:19:06;;;;;;;0.77;0.60;;;;;;;;;;4152337;28;20052;-39
2022/05/05 08:21:10;;;;;;;1.40;0.50;;;;;;;;;;4159055;28;20476;-39
2022/05/05 08:23:12;;;;;;;1.63;0.50;;;;;;;;;;4160873;28;20485;-41
2022/05/05 08:29:53;;;;;;;0.82;0.47;;;;;;;;;;4161659;28;20094;-41
2022/05/05 08:31:54;;;;;;;2.25;0.47;;;;;;;;;;4172498;28;20064;-40
2022/05/05 08:33:55;;;;;;;1.52;0.60;;;;;;;;;;4165332;28;20147;-40
2022/05/05 08:35:57;;;;;;;2.28;0.40;;;;;;;;;;4161322;28;20053;-40
2022/05/05 08:37:58;;;;;;;1.67;0.30;;;;;;;;;;4166734;28;20133;-41
2022/05/05 08:39:59;;;;;;;1.30;0.70;;;;;;;;;;4161369;28;20926;-40
2022/05/05 08:42:02;;;;;;;0.90;0.68;;;;;;;;;;4159688;28;20538;-38
2022/05/05 08:44:03;;;;;;;0.60;0.40;;;;;;;;;;4159521;28;20760;-41
2022/05/05 08:46:05;;;;;;;1.50;0.60;;;;;;;;;;4153111;28;20605;-42
2022/05/05 08:48:11;;;;;;;0.57;0.50;;;;;;;;;;4162945;28;21592;-41
2022/05/05 08:50:12;;;;;;;1.45;0.30;;;;;;;;;;4165112;28;20048;-41
2022/05/05 08:52:17;;;;;;;2.05;0.55;;;;;;;;;;4162963;28;20072;-41
2022/05/05 08:54:19;;;;;;;0.60;0.40;;;;;;;;;;4160858;28;20036;-40
2022/05/05 08:56:20;;;;;;;1.40;0.70;;;;;;;;;;4163876;28;20102;-41
2022/05/05 08:58:22;;;;;;;0.80;0.50;;;;;;;;;;4163740;28;20555;-41
2022/05/05 09:00:24;;;;;;;0.82;0.50;;;;;;;;;;4160250;28;20061;-39
2022/05/05 09:02:25;;;;;;;0.52;0.43;;;;;;;;;;4165921;28;20056;-39
2022/05/05 09:04:26;;;;;;;1.60;0.55;;;;;;;;;;4155842;28;20048;-40
2022/05/05 09:06:39;;;;;;;2.22;0.43;;;;;;;;;;4168047;28;20052;-39
2022/05/05 09:08:44;;;;;;;1.15;0.50;;;;;;;;;;4164684;28;20044;-41
2022/05/05 09:10:50;;;;;;;1.20;0.50;;;;;;;;;;4160212;28;20049;-41
2022/05/05 09:12:58;;;;;;;1.13;0.40;;;;;;;;;;4166676;28;20125;-39
2022/05/05 09:14:59;;;;;;;1.27;0.60;;;;;;;;;;4156472;28;20265;-40
2022/05/05 09:17:07;;;;;;;0.73;0.50;;;;;;;;;;4164149;28;20163;-40
2022/05/05 09:19:09;;;;;;;1.08;0.50;;;;;;;;;;4164943;28;20065;-40
2022/05/05 09:21:11;;;;;;;0.65;0.40;;;;;;;;;;4173863;28;20463;-41
2022/05/05 09:23:28;;;;;;;0.77;0.47;;;;;;;;;;4162596;28;20524;-42
2022/05/05 09:25:51;;;;;;;0.60;0.57;;;;;;;;;;4159194;28;20398;-41
2022/05/05 09:27:54;;;;;;;1.48;0.40;;;;;;;;;;4160006;28;20463;-40
2022/05/05 09:30:01;;;;;;;0.65;0.47;;;;;;;;;;4153993;28;20111;-41
2022/05/05 09:32:09;;;;;;;2.95;0.50;;;;;;;;;;4161696;28;20181;-41
2022/05/05 09:34:17;;;;;;;0.80;0.45;;;;;;;;;;4165773;28;20107;-39
2022/05/05 09:36:25;;;;;;;0.70;0.50;;;;;;;;;;4168042;28;20098;-42
2022/05/05 09:38:46;;;;;;;1.48;0.70;;;;;;;;;;4188412;28;20495;-42
2022/05/05 09:41:01;;;;;;;1.05;0.50;;;;;;;;;;4169086;28;20447;-41
2022/05/05 09:43:02;;;;;;;2.22;0.65;;;;;;;;;;4206387;28;20043;-41
2022/05/05 09:45:29;;;;;;;1.15;0.40;;;;;;;;;;4169966;28;20158;-41
2022/05/05 09:47:30;;;;;;;1.17;0.60;;;;;;;;;;4170064;28;20056;-41
2022/05/05 09:49:31;;;;;;;1.10;0.70;;;;;;;;;;4173964;28;20049;-41
2022/05/05 09:58:59;;;;;;;0.98;0.60;;;;;;;;;;4173385;28;20044;-43
2022/05/05 10:01:09;;;;;;;0.68;0.40;;;;;;;;;;4170475;28;20491;-41
2022/05/05 10:05:32;;;;;;;1.17;0.55;;;;;;;;;;4158618;28;22059;-42
2022/05/05 10:07:34;;;;;;;1.02;0.63;;;;;;;;;;4186518;28;21454;-42
2022/05/05 10:09:35;;;;;;;3.10;0.75;;;;;;;;;;4171448;28;20055;-41
2022/05/05 10:11:36;;;;;;;0.95;0.57;;;;;;;;;;4162466;28;20106;-41
2022/05/05 10:13:38;;;;;;;1.23;0.50;;;;;;;;;;4161920;28;20053;-41
2022/05/05 10:15:39;;;;;;;0.57;0.35;;;;;;;;;;4167866;28;20053;-42
2022/05/05 10:17:41;;;;;;;2.60;0.60;;;;;;;;;;4159441;28;20052;-39
2022/05/05 10:19:43;;;;;;;2.78;0.82;;;;;;;;;;4178413;28;20093;-42
2022/05/05 10:21:54;;;;;;;0.88;0.38;;;;;;;;;;4169084;28;20109;-41
2022/05/05 10:24:05;;;;;;;0.95;0.40;;;;;;;;;;4169460;28;20049;-41
2022/05/05 10:26:07;;;;;;;1.42;0.70;;;;;;;;;;4160542;28;20044;-41
2022/05/05 10:28:27;;;;;;;1.05;0.50;;;;;;;;;;4170279;28;20048;-40
2022/05/05 10:30:34;;;;;;;1.65;0.73;;;;;;;;;;4165324;28;20091;-42
2022/05/05 10:32:36;;;;;;;0.88;0.55;;;;;;;;;;4194065;28;20059;-40
2022/05/05 10:34:38;;;;;;;0.82;0.60;;;;;;;;;;4167046;28;20075;-40
2022/05/05 10:36:39;;;;;;;2.85;0.60;;;;;;;;;;4172128;28;20443;-40
2022/05/05 10:38:41;;;;;;;1.48;0.57;;;;;;;;;;4170979;28;20199;-40
2022/05/05 10:40:45;;;;;;;1.30;0.63;;;;;;;;;;4167348;28;20555;-41
2022/05/05 10:42:50;;;;;;;2.72;0.57;;;;;;;;;;4170778;28;20335;-39
2022/05/05 10:45:10;;;;;;;1.02;0.40;;;;;;;;;;4163381;28;20045;-39
2022/05/05 10:47:14;;;;;;;1.00;0.60;;;;;;;;;;4170749;28;20049;-40
2022/05/05 10:49:30;;;;;;;0.57;0.47;;;;;;;;;;4173676;28;20146;-42
2022/05/05 10:51:31;;;;;;;1.45;0.65;;;;;;;;;;4171844;28;20347;-40
2022/05/05 10:53:33;;;;;;;1.42;0.68;;;;;;;;;;4162362;28;20052;-40
2022/05/05 10:55:34;;;;;;;3.00;0.70;;;;;;;;;;4185980;28;20063;-41
2022/05/05 10:57:38;;;;;;;1.30;0.60;;;;;;;;;;4160684;28;20067;-38
2022/05/05 10:59:59;;;;;;;0.73;0.55;;;;;;;;;;4162314;28;20098;-39
2022/05/05 11:02:01;;;;;;;0.50;0.50;;;;;;;;;;4159374;28;20064;-40
2022/05/05 11:04:06;;;;;;;1.45;0.50;;;;;;;;;;4156809;28;20123;-40
2022/05/05 11:06:17;;;;;;;0.82;0.45;;;;;;;;;;4163957;28;20052;-40
2022/05/05 11:08:19;;;;;;;1.58;0.60;;;;;;;;;;4154433;28;20102;-39
2022/05/05 11:10:39;;;;;;;2.38;0.60;;;;;;;;;;4155076;28;20589;-39
2022/05/05 11:12:40;;;;;;;2.13;0.50;;;;;;;;;;4159600;28;20057;-40
2022/05/05 11:21:45;;;;;;;0.65;0.40;;;;;;;;;;4170668;28;20059;-41
2022/05/05 11:23:47;;;;;;;2.80;0.50;;;;;;;;;;4169019;28;20044;-42
2022/05/05 11:25:51;;;;;;;1.15;0.60;;;;;;;;;;4176052;28;20071;-39
2022/05/05 11:27:58;;;;;;;1.45;0.32;;;;;;;;;;4157752;28;20723;-40
2022/05/05 11:29:59;;;;;;;2.28;0.43;;;;;;;;;;4156940;28;21118;-41
2022/05/05 11:32:05;;;;;;;2.63;0.50;;;;;;;;;;4160742;28;20131;-41
2022/05/05 11:34:06;;;;;;;1.88;0.50;;;;;;;;;;4160876;28;20045;-40
2022/05/05 11:36:07;;;;;;;0.55;0.40;;;;;;;;;;4165779;28;20045;-41
2022/05/05 11:38:09;;;;;;;0.82;0.40;;;;;;;;;;4163284;28;20540;-40
2022/05/05 11:40:11;;;;;;;0.98;0.55;;;;;;;;;;4165320;28;20048;-38
2022/05/05 11:42:13;;;;;;;1.13;0.70;;;;;;;;;;4167191;28;20459;-41
2022/05/05 11:44:17;;;;;;;1.52;0.70;;;;;;;;;;4161496;28;20099;-39
2022/05/05 11:46:19;;;;;;;0.90;0.47;;;;;;;;;;4162673;28;20056;-40
2022/05/05 11:48:20;;;;;;;1.40;0.70;;;;;;;;;;4166175;28;20049;-41
2022/05/05 11:50:21;;;;;;;1.02;0.82;;;;;;;;;;4158622;28;20117;-41
2022/05/05 11:52:23;;;;;;;0.52;0.40;;;;;;;;;;4159486;28;20118;-38
2022/05/05 11:54:26;;;;;;;0.60;0.40;;;;;;;;;;4167671;28;20053;-38
2022/05/05 11:56:28;;;;;;;0.68;0.50;;;;;;;;;;4158769;28;20474;-41
2022/05/05 12:03:18;;;;;;;0.50;0.50;;;;;;;;;;4152685;28;20102;-42
2022/05/05 12:05:21;;;;;;;0.57;0.50;;;;;;;;;;4144993;28;20044;-41
2022/05/05 12:07:23;;;;;;;1.08;0.50;;;;;;;;;;4183850;28;20056;-40
2022/05/05 12:09:24;;;;;;;0.85;0.43;;;;;;;;;;4164845;28;20071;-41
2022/05/05 12:11:25;;;;;;;0.75;0.50;;;;;;;;;;4161551;28;20157;-41
2022/05/05 12:13:28;;;;;;;1.15;0.60;;;;;;;;;;4166348;28;20065;-41
2022/05/05 12:15:32;;;;;;;1.85;0.82;;;;;;;;;;4168054;28;20057;-39
2022/05/05 12:17:39;;;;;;;2.38;0.75;;;;;;;;;;4163598;28;20147;-38
2022/05/05 12:19:44;;;;;;;1.52;0.50;;;;;;;;;;4164658;28;20044;-41
2022/05/05 12:21:55;;;;;;;4.88;0.50;;;;;;;;;;4164534;28;20072;-38
2022/05/05 12:23:59;;;;;;;2.40;0.70;;;;;;;;;;4162657;28;20106;-39
2022/05/05 12:26:02;;;;;;;0.80;0.50;;;;;;;;;;4161656;28;20052;-42
2022/05/05 12:28:04;;;;;;;1.63;0.70;;;;;;;;;;4164043;28;20114;-39
2022/05/05 12:30:06;;;;;;;0.80;0.60;;;;;;;;;;4165571;28;20044;-42
2022/05/05 12:32:15;;;;;;;1.52;0.70;;;;;;;;;;4150090;28;21578;-39
2022/05/05 12:34:17;;;;;;;;;;;;;;;;;;4161928;28;20061;-40
2022/05/05 12:36:18;;;;;;;0.85;0.50;;;;;;;;;;4160745;28;19931;-42
2022/05/05 12:38:19;;;;;;;0.75;0.50;;;;;;;;;;4164696;28;20412;-40
2022/05/05 12:40:20;;;;;;;1.65;0.68;;;;;;;;;;4165457;28;20122;-41
2022/05/05 12:42:22;;;;;;;1.88;0.65;;;;;;;;;;4165938;28;20045;-41
2022/05/05 12:44:28;;;;;;;2.08;0.50;;;;;;;;;;4165011;28;20051;-41
2022/05/05 12:46:29;;;;;;;1.55;0.70;;;;;;;;;;4168249;28;20124;-42
2022/05/05 12:48:31;;;;;;;1.42;0.50;;;;;;;;;;4165464;28;20052;-40
2022/05/05 12:50:53;;;;;;;1.35;0.75;;;;;;;;;;4167888;28;20052;-41
2022/05/05 12:59:55;;;;;;;1.88;0.50;;;;;;;;;;4166914;28;19989;-41
2022/05/05 13:01:56;;;;;;;1.48;0.68;;;;;;;;;;4167615;28;20088;-41
2022/05/05 13:03:58;;;;;;;1.10;0.70;;;;;;;;;;4162442;28;20557;-41
2022/05/05 13:05:59;;;;;;;1.48;0.55;;;;;;;;;;4169252;28;20118;-41
2022/05/05 13:08:01;;;;;;;1.38;0.80;;;;;;;;;;4171981;28;21010;-41
2022/05/05 13:10:02;;;;;;;1.45;0.47;;;;;;;;;;4165311;28;20477;-40
2022/05/05 13:12:03;;;;;;;1.13;0.43;;;;;;;;;;4166760;28;20056;-39